createdAt,value
2022-10-03T00:02:12.188Z,13.02
2022-10-03T00:05:12.414Z,13.00
2022-10-03T00:07:56.511Z,13.00
2022-10-03T00:10:38.537Z,12.99
2022-10-03T00:13:28.373Z,12.98
2022-10-03T00:16:03.198Z,12.97
2022-10-03T00:19:08.565Z,12.97
2022-10-03T00:21:53.586Z,12.99
2022-10-03T00:24:52.457Z,12.98
2022-10-03T00:27:37.211Z,12.82
2022-10-03T00:30:22.034Z,12.81
2022-10-03T00:33:03.697Z,12.66
2022-10-03T00:35:52.739Z,12.80
2022-10-03T00:38:48.116Z,12.77
2022-10-03T00:41:38.622Z,12.86
2022-10-03T00:44:28.818Z,12.77
2022-10-03T00:46:58.792Z,12.65
2022-10-03T00:50:30.444Z,12.58
2022-10-03T00:54:02.767Z,12.45
2022-10-03T00:57:16.406Z,12.58
2022-10-03T01:00:06.144Z,12.51
2022-10-03T01:02:44.765Z,12.36
2022-10-03T01:05:46.781Z,12.44
2022-10-03T01:08:27.045Z,12.38
2022-10-03T01:11:25.034Z,12.07
2022-10-03T01:13:54.425Z,12.01
2022-10-03T01:17:13.777Z,11.92
2022-10-03T01:20:22.324Z,11.81
2022-10-03T01:23:34.151Z,11.85
2022-10-03T01:26:40.530Z,11.80
2022-10-03T01:29:34.426Z,11.83
2022-10-03T01:32:30.741Z,11.89
2022-10-03T01:36:12.410Z,11.87
2022-10-03T01:38:47.571Z,11.85
2022-10-03T01:41:50.208Z,11.84
2022-10-03T01:44:58.017Z,11.58
2022-10-03T01:47:37.618Z,11.53
2022-10-03T01:50:26.321Z,11.65
2022-10-03T01:53:53.432Z,11.72
2022-10-03T01:56:58.434Z,11.77
2022-10-03T02:00:05.372Z,11.50
2022-10-03T02:02:50.264Z,11.42
2022-10-03T02:06:01.037Z,11.34
2022-10-03T02:09:03.305Z,11.53
2022-10-03T02:12:09.245Z,11.60
2022-10-03T02:14:58.755Z,11.63
2022-10-03T02:17:58.527Z,11.40
2022-10-03T02:20:51.967Z,11.53
2022-10-03T02:23:33.633Z,11.40
2022-10-03T02:26:58.694Z,11.19
2022-10-03T02:29:49.970Z,11.38
2022-10-03T02:32:41.753Z,11.50
2022-10-03T02:35:10.433Z,11.43
2022-10-03T02:38:24.433Z,11.44
2022-10-03T02:41:32.736Z,11.31
2022-10-03T02:44:37.568Z,11.38
2022-10-03T02:47:48.716Z,11.38
2022-10-03T02:50:42.280Z,11.28
2022-10-03T02:53:51.213Z,11.35
2022-10-03T02:56:56.463Z,11.25
2022-10-03T03:00:20.863Z,11.28
2022-10-03T03:03:34.341Z,11.25
2022-10-03T03:06:54.514Z,11.22
2022-10-03T03:10:11.657Z,11.15
2022-10-03T03:12:52.939Z,10.90
2022-10-03T03:16:24.048Z,10.94
2022-10-03T03:19:43.776Z,11.05
2022-10-03T03:22:35.241Z,11.07
2022-10-03T03:25:39.182Z,11.09
2022-10-03T03:28:46.887Z,11.06
2022-10-03T03:31:29.671Z,11.10
2022-10-03T03:34:19.022Z,11.09
2022-10-03T03:37:05.095Z,11.06
2022-10-03T03:39:49.796Z,11.01
2022-10-03T03:43:04.101Z,10.99
2022-10-03T03:45:33.685Z,11.01
2022-10-03T03:49:16.473Z,10.98
2022-10-03T03:52:14.774Z,11.04
2022-10-03T03:55:32.760Z,11.03
2022-10-03T03:58:41.802Z,11.08
2022-10-03T04:01:39.661Z,11.05
2022-10-03T04:04:38.105Z,11.04
2022-10-03T04:08:12.221Z,11.06
2022-10-03T04:10:50.488Z,11.00
2022-10-03T04:13:24.316Z,10.91
2022-10-03T04:16:13.081Z,10.90
2022-10-03T04:19:06.670Z,10.83
2022-10-03T04:22:12.880Z,10.88
2022-10-03T04:25:01.269Z,10.79
2022-10-03T04:27:48.229Z,10.81
2022-10-03T04:30:51.593Z,10.86
2022-10-03T04:33:53.817Z,10.88
2022-10-03T04:36:41.170Z,10.91
2022-10-03T04:39:21.592Z,10.88
2022-10-03T04:41:55.158Z,10.88
2022-10-03T04:44:49.876Z,10.85
2022-10-03T04:47:27.573Z,10.79
2022-10-03T04:50:12.481Z,10.84
2022-10-03T04:53:04.782Z,10.78
2022-10-03T04:55:43.039Z,10.79
2022-10-03T04:58:25.151Z,10.79
2022-10-03T05:01:12.167Z,10.67
2022-10-03T05:03:57.597Z,10.63
2022-10-03T05:06:49.288Z,10.71
2022-10-03T05:09:42.196Z,10.67
2022-10-03T05:12:45.852Z,10.68
2022-10-03T05:15:42.264Z,10.65
2022-10-03T05:18:58.968Z,10.56
2022-10-03T05:22:20.940Z,10.54
2022-10-03T05:25:11.869Z,10.60
2022-10-03T05:28:11.776Z,10.55
2022-10-03T05:31:08.210Z,10.64
2022-10-03T05:33:54.450Z,10.60
2022-10-03T05:36:24.289Z,10.53
2022-10-03T05:39:28.185Z,10.56
2022-10-03T05:42:20.856Z,10.58
2022-10-03T05:44:58.345Z,10.64
2022-10-03T05:48:11.003Z,10.72
2022-10-03T05:51:15.340Z,10.82
2022-10-03T05:54:24.052Z,10.89
2022-10-03T05:57:07.219Z,11.13
2022-10-03T06:00:08.229Z,11.63
2022-10-03T06:03:10.877Z,12.38
2022-10-03T06:06:27.331Z,13.22
2022-10-03T06:09:45.444Z,13.89
2022-10-03T06:12:43.587Z,14.94
2022-10-03T06:15:43.418Z,15.77
2022-10-03T06:18:38.211Z,16.32
2022-10-03T06:21:48.800Z,16.68
2022-10-03T06:25:11.359Z,16.88
2022-10-03T06:27:59.084Z,17.49
2022-10-03T06:31:02.756Z,18.43
2022-10-03T06:33:35.276Z,19.15
2022-10-03T06:36:13.841Z,19.72
2022-10-03T06:39:33.091Z,20.17
2022-10-03T06:42:34.858Z,20.74
2022-10-03T06:45:31.115Z,21.14
2022-10-03T06:48:49.299Z,21.36
2022-10-03T06:51:40.622Z,22.15
2022-10-03T06:55:04.401Z,23.22
2022-10-03T06:58:27.186Z,24.04
2022-10-03T07:01:31.529Z,24.37
2022-10-03T07:04:31.553Z,24.65
2022-10-03T07:07:53.772Z,25.15
2022-10-03T07:11:09.999Z,25.68
2022-10-03T07:14:36.887Z,25.95
2022-10-03T07:17:29.518Z,26.28
2022-10-03T07:20:26.877Z,26.50
2022-10-03T07:23:52.193Z,26.98
2022-10-03T07:26:51.789Z,27.72
2022-10-03T07:30:01.017Z,28.43
2022-10-03T07:33:06.033Z,29.44
2022-10-03T07:36:38.355Z,29.72
2022-10-03T07:40:13.241Z,30.34
2022-10-03T07:43:02.152Z,30.97
2022-10-03T07:45:40.862Z,31.76
2022-10-03T07:49:04.885Z,33.07
2022-10-03T07:52:00.707Z,33.85
2022-10-03T07:55:10.437Z,34.50
2022-10-03T07:57:52.135Z,35.02
2022-10-03T08:00:40.414Z,35.55
2022-10-03T08:04:24.140Z,36.32
2022-10-03T08:07:20.147Z,36.91
2022-10-03T08:10:16.036Z,37.35
2022-10-03T08:13:14.463Z,37.88
2022-10-03T08:16:07.402Z,38.54
2022-10-03T08:18:42.839Z,38.93
2022-10-03T08:21:22.103Z,39.64
2022-10-03T08:24:22.133Z,40.22
2022-10-03T08:27:26.632Z,40.53
2022-10-03T08:30:23.749Z,40.84
2022-10-03T08:32:59.487Z,41.51
2022-10-03T08:35:57.651Z,41.92
2022-10-03T08:38:55.574Z,42.30
2022-10-03T08:42:15.324Z,42.88
2022-10-03T08:45:25.031Z,43.97
2022-10-03T08:48:41.469Z,44.43
2022-10-03T08:51:55.375Z,44.64
2022-10-03T08:55:23.359Z,45.10
2022-10-03T08:58:31.763Z,45.44
2022-10-03T09:01:36.011Z,45.07
2022-10-03T09:04:46.353Z,45.66
2022-10-03T09:07:37.450Z,46.15
2022-10-03T09:10:41.549Z,46.71
2022-10-03T09:13:47.875Z,46.99
2022-10-03T09:17:06.460Z,46.99
2022-10-03T09:20:24.372Z,47.20
2022-10-03T09:23:26.079Z,45.77
2022-10-03T09:26:56.006Z,46.74
2022-10-03T09:29:50.989Z,47.77
2022-10-03T09:32:42.844Z,48.15
2022-10-03T09:35:36.010Z,49.06
2022-10-03T09:38:58.707Z,49.71
2022-10-03T09:41:31.846Z,49.54
2022-10-03T09:44:37.728Z,49.53
2022-10-03T09:47:29.191Z,49.51
2022-10-03T09:50:19.383Z,49.60
2022-10-03T09:53:04.198Z,49.67
2022-10-03T09:56:35.887Z,49.77
2022-10-03T09:59:34.219Z,45.71
